Time;durP1;ratioP1;P1;durP2;ratioP2;P2;SDS_P1;SDS_P2;PMS_P1;PMS_P2;Temp;Humidity;BMP_temperature;BMP_pressure;BME280_temperature;BME280_humidity;BME280_pressure;Samples;Min_cycle;Max_cycle;Signal;HPM_P1;HPM_P2
2022/04/08 00:00:14;;;;;;;4.65;1.00;;;6.30;90.10;;;;;;5052517;28;20084;-41
2022/04/08 00:02:41;;;;;;;6.50;1.63;;;6.40;90.10;;;;;;5052519;28;20029;-40
2022/04/08 00:05:07;;;;;;;5.70;1.50;;;6.40;90.10;;;;;;5052583;28;20061;-41
2022/04/08 00:07:33;;;;;;;3.42;1.40;;;6.40;90.10;;;;;;5052885;28;20453;-41
2022/04/08 00:09:58;;;;;;;7.63;1.60;;;6.40;90.10;;;;;;5052533;28;20032;-41
2022/04/08 00:12:24;;;;;;;10.43;1.45;;;6.40;90.00;;;;;;5052621;28;20036;-42
2022/04/08 00:14:49;;;;;;;5.10;1.40;;;6.40;90.00;;;;;;5053061;28;20489;-44
2022/04/08 00:17:15;;;;;;;5.65;1.38;;;6.40;89.80;;;;;;5056658;28;20517;-41
2022/04/08 00:19:41;;;;;;;8.32;1.55;;;6.40;89.60;;;;;;5056760;28;20508;-39
2022/04/08 00:22:07;;;;;;;5.38;1.42;;;6.40;89.50;;;;;;5056474;28;20025;-39
2022/04/08 00:24:33;;;;;;;8.50;1.67;;;6.40;89.10;;;;;;5056407;28;20029;-38
2022/04/08 00:26:59;;;;;;;10.10;1.50;;;6.40;89.00;;;;;;5056384;28;20060;-40
2022/04/08 00:29:24;;;;;;;7.65;1.25;;;6.40;88.80;;;;;;5056317;28;20029;-40
2022/04/08 00:31:57;;;;;;;8.35;1.65;;;6.40;88.80;;;;;;5056179;28;20071;-41
2022/04/08 00:34:23;;;;;;;5.38;1.20;;;6.50;88.80;;;;;;5056283;28;20021;-40
2022/04/08 00:36:49;;;;;;;7.30;1.27;;;6.40;88.40;;;;;;5056164;28;20078;-41
2022/04/08 00:39:14;;;;;;;7.32;1.50;;;6.40;88.30;;;;;;5056208;28;20036;-41
2022/04/08 00:41:43;;;;;;;6.80;1.42;;;6.40;87.90;;;;;;5056116;28;20025;-40
2022/04/08 00:44:10;;;;;;;7.80;1.20;;;6.40;88.00;;;;;;5056114;28;20392;-41
2022/04/08 00:46:38;;;;;;;7.22;1.27;;;6.40;88.10;;;;;;5054622;28;20037;-40
2022/04/08 00:49:04;;;;;;;7.82;1.58;;;6.40;88.20;;;;;;5055945;28;20090;-40
2022/04/08 00:51:31;;;;;;;5.95;1.48;;;6.40;87.90;;;;;;5055849;28;20021;-38
2022/04/08 00:53:58;;;;;;;5.03;1.17;;;6.40;87.90;;;;;;5055901;28;20500;-40
2022/04/08 00:56:24;;;;;;;5.72;1.58;;;6.40;87.90;;;;;;5054589;28;20134;-40
2022/04/08 00:58:50;;;;;;;5.20;1.40;;;6.40;87.50;;;;;;5055609;28;20043;-40
2022/04/08 01:01:16;;;;;;;7.22;1.58;;;6.40;87.50;;;;;;5054431;28;20037;-39
2022/04/08 01:03:41;;;;;;;13.15;1.60;;;6.40;87.50;;;;;;5055779;28;20087;-40
2022/04/08 01:06:07;;;;;;;6.78;1.50;;;6.30;87.40;;;;;;5054363;28;20437;-40
2022/04/08 01:08:35;;;;;;;5.75;1.35;;;6.40;87.60;;;;;;5055602;28;20025;-39
2022/04/08 01:11:03;;;;;;;8.75;2.03;;;6.40;87.70;;;;;;5055830;28;20079;-40
2022/04/08 01:13:28;;;;;;;8.10;1.85;;;6.40;87.60;;;;;;5055585;28;20477;-39
2022/04/08 01:15:54;;;;;;;6.10;1.92;;;6.40;87.20;;;;;;5055513;28;20032;-41
2022/04/08 01:18:19;;;;;;;11.63;2.35;;;6.30;87.10;;;;;;5054185;28;20033;-41
2022/04/08 01:20:45;;;;;;;8.13;1.40;;;6.30;86.70;;;;;;5055383;28;20031;-40
2022/04/08 01:23:12;;;;;;;9.48;2.08;;;6.40;86.90;;;;;;5055322;28;20032;-39
2022/04/08 01:25:37;;;;;;;7.43;1.38;;;6.30;86.30;;;;;;5055245;28;20025;-40
2022/04/08 01:28:03;;;;;;;9.10;1.67;;;6.20;86.40;;;;;;5054479;28;20029;-40
2022/04/08 01:30:29;;;;;;;7.05;1.70;;;6.20;86.60;;;;;;5053807;28;20032;-39
2022/04/08 01:32:54;;;;;;;8.52;1.85;;;6.10;86.70;;;;;;5055043;28;20025;-40
2022/04/08 01:35:20;;;;;;;8.05;2.05;;;6.00;86.70;;;;;;5055186;28;20021;-40
2022/04/08 01:37:45;;;;;;;7.38;2.00;;;6.00;86.70;;;;;;5055059;28;20029;-41
2022/04/08 01:40:12;;;;;;;9.30;1.70;;;5.90;86.60;;;;;;5055294;28;20056;-40
2022/04/08 01:42:37;;;;;;;13.65;2.83;;;5.90;86.40;;;;;;5055180;28;20154;-39
2022/04/08 01:45:04;;;;;;;8.38;1.63;;;5.80;86.10;;;;;;5055034;28;20126;-39
2022/04/08 01:47:29;;;;;;;9.57;1.75;;;5.80;86.20;;;;;;5054837;28;20033;-39
2022/04/08 01:49:55;;;;;;;7.10;1.63;;;5.80;86.30;;;;;;5054842;28;20123;-40
2022/04/08 01:52:21;;;;;;;9.50;1.70;;;5.70;86.30;;;;;;5054830;28;20025;-39
2022/04/08 01:54:46;;;;;;;11.57;2.10;;;5.70;86.50;;;;;;5054716;28;20086;-39
2022/04/08 01:57:12;;;;;;;9.00;1.50;;;5.70;86.40;;;;;;5053740;28;20447;-40
2022/04/08 01:59:38;;;;;;;8.05;1.67;;;5.60;86.50;;;;;;5054486;28;20045;-39
2022/04/08 02:02:05;;;;;;;6.68;1.80;;;5.60;86.70;;;;;;5054622;28;20061;-40
2022/04/08 02:04:30;;;;;;;7.78;1.52;;;5.50;86.70;;;;;;5054795;28;20024;-38
2022/04/08 02:06:56;;;;;;;6.53;1.33;;;5.50;86.90;;;;;;5054430;28;20369;-40
2022/04/08 02:09:21;;;;;;;11.02;1.63;;;5.50;87.00;;;;;;5054512;28;20025;-40
2022/04/08 02:11:47;;;;;;;11.57;1.85;;;5.50;87.00;;;;;;5054372;28;20025;-40
2022/04/08 02:14:13;;;;;;;12.10;2.45;;;5.40;87.00;;;;;;5054412;28;20085;-40
2022/04/08 02:16:38;;;;;;;6.45;1.35;;;5.40;87.00;;;;;;5054350;28;20025;-40
2022/04/08 02:19:04;;;;;;;12.52;1.50;;;5.40;87.10;;;;;;5054599;28;20025;-40
2022/04/08 02:21:30;;;;;;;8.30;1.60;;;5.40;87.20;;;;;;5054198;28;20040;-40
2022/04/08 02:23:56;;;;;;;7.25;1.48;;;5.30;87.20;;;;;;5054438;28;20499;-40
2022/04/08 02:26:22;;;;;;;7.00;1.20;;;5.40;87.40;;;;;;5054123;28;20021;-39
2022/04/08 02:28:47;;;;;;;7.63;1.50;;;5.30;87.50;;;;;;5054045;28;20021;-40
2022/04/08 02:31:13;;;;;;;9.13;1.60;;;5.30;87.70;;;;;;5054054;28;20035;-41
2022/04/08 02:33:39;;;;;;;12.35;1.67;;;5.30;87.70;;;;;;5053946;28;20017;-41
2022/04/08 02:36:06;;;;;;;10.27;1.92;;;5.30;87.70;;;;;;5053929;28;20028;-39
2022/04/08 02:38:32;;;;;;;8.38;1.50;;;5.30;87.70;;;;;;5052697;28;20040;-39
2022/04/08 02:40:58;;;;;;;9.68;2.05;;;5.30;87.70;;;;;;5054088;28;20028;-41
2022/04/08 02:43:23;;;;;;;7.63;1.70;;;5.30;87.80;;;;;;5052674;28;20025;-41
2022/04/08 02:45:49;;;;;;;9.23;2.33;;;5.20;87.70;;;;;;5053750;28;20025;-40
2022/04/08 02:48:15;;;;;;;9.48;1.80;;;5.20;87.80;;;;;;5052345;28;20043;-40
2022/04/08 02:50:42;;;;;;;9.98;1.55;;;5.20;87.90;;;;;;5053781;28;20100;-40
2022/04/08 02:53:07;;;;;;;12.77;1.95;;;5.20;88.00;;;;;;5053886;28;20109;-39
2022/04/08 02:55:35;;;;;;;10.75;1.70;;;5.20;88.00;;;;;;5053729;28;20149;-39
2022/04/08 02:58:01;;;;;;;12.00;2.22;;;5.20;88.20;;;;;;5053558;28;20062;-39
2022/04/08 03:00:27;;;;;;;8.45;1.95;;;5.20;88.30;;;;;;5053511;28;20045;-40
2022/04/08 03:02:52;;;;;;;8.27;1.80;;;5.20;88.40;;;;;;5053786;28;20147;-40
2022/04/08 03:05:18;;;;;;;11.73;2.08;;;5.20;88.50;;;;;;5053519;28;20094;-39
2022/04/08 03:07:43;;;;;;;8.98;1.95;;;5.20;88.50;;;;;;5053346;28;20397;-40
2022/04/08 03:10:09;;;;;;;10.68;2.05;;;5.20;88.50;;;;;;5053385;28;20017;-40
2022/04/08 03:12:35;;;;;;;9.73;2.03;;;5.20;88.50;;;;;;5053328;28;20456;-40
2022/04/08 03:15:01;;;;;;;9.45;1.92;;;5.20;88.50;;;;;;5052001;28;20101;-41
2022/04/08 03:17:27;;;;;;;7.95;1.88;;;5.30;88.40;;;;;;5053437;28;20075;-41
2022/04/08 03:19:52;;;;;;;9.30;1.77;;;5.30;88.30;;;;;;5053127;28;20370;-41
2022/04/08 03:22:20;;;;;;;13.75;2.47;;;5.30;88.20;;;;;;5053200;28;20028;-40
2022/04/08 03:24:47;;;;;;;10.65;1.73;;;5.30;88.10;;;;;;5053016;28;20039;-39
2022/04/08 03:27:13;;;;;;;11.80;2.13;;;5.40;88.00;;;;;;5052951;28;20033;-40
2022/04/08 03:29:39;;;;;;;8.07;1.70;;;5.50;87.30;;;;;;5052875;28;20079;-40
2022/04/08 03:32:05;;;;;;;7.63;2.10;;;5.40;86.90;;;;;;5053183;28;20029;-40
2022/04/08 03:34:31;;;;;;;9.20;2.13;;;5.30;87.00;;;;;;5053199;28;20104;-39
2022/04/08 03:36:57;;;;;;;7.28;1.70;;;5.30;87.10;;;;;;5052915;28;20532;-41
2022/04/08 03:39:22;;;;;;;8.15;1.70;;;5.30;87.40;;;;;;5052933;28;20025;-40
2022/04/08 03:41:48;;;;;;;4.10;1.40;;;5.20;87.50;;;;;;5052977;28;20429;-40
2022/04/08 03:44:14;;;;;;;8.75;1.63;;;5.20;87.70;;;;;;5053084;28;20508;-40
2022/04/08 03:46:41;;;;;;;7.72;1.88;;;5.20;87.60;;;;;;5052855;28;20033;-40
2022/04/08 03:49:14;;;;;;;6.90;1.73;;;5.20;87.60;;;;;;5052937;28;20039;-40
2022/04/08 03:51:40;;;;;;;6.95;1.58;;;5.20;87.50;;;;;;5051094;28;20508;-40
2022/04/08 03:54:06;;;;;;;7.22;1.33;;;5.20;87.50;;;;;;5052875;28;20021;-40
2022/04/08 03:56:32;;;;;;;5.90;1.65;;;5.30;87.60;;;;;;5052575;28;20025;-39
2022/04/08 03:58:57;;;;;;;7.57;1.60;;;5.30;87.60;;;;;;5052486;28;20052;-40
2022/04/08 04:01:23;;;;;;;7.70;1.30;;;5.20;87.60;;;;;;5052568;28;20029;-40
2022/04/08 04:03:49;;;;;;;6.45;1.42;;;5.20;87.70;;;;;;5051182;28;20024;-41
2022/04/08 04:06:15;;;;;;;6.38;1.30;;;5.20;87.80;;;;;;5052716;28;20118;-42
2022/04/08 04:08:41;;;;;;;6.60;1.30;;;5.10;87.90;;;;;;5052407;28;20048;-40
2022/04/08 04:11:06;;;;;;;5.25;1.50;;;5.10;88.00;;;;;;5052653;28;20028;-41
2022/04/08 04:13:32;;;;;;;3.85;1.30;;;5.10;88.00;;;;;;5052682;28;20100;-40
2022/04/08 04:15:57;;;;;;;5.75;1.20;;;5.10;88.10;;;;;;5052540;28;20533;-40
2022/04/08 04:18:23;;;;;;;5.28;1.50;;;5.10;88.10;;;;;;5052520;28;20025;-41
2022/04/08 04:20:48;;;;;;;6.35;1.42;;;5.10;88.20;;;;;;5052419;28;20020;-40
2022/04/08 04:23:14;;;;;;;9.88;1.80;;;5.00;88.10;;;;;;5052411;28;20018;-41
2022/04/08 04:25:39;;;;;;;2.25;1.42;;;5.00;88.20;;;;;;5052616;28;20086;-40
2022/04/08 04:28:06;;;;;;;4.18;1.67;;;4.90;88.30;;;;;;5052282;28;20367;-40
2022/04/08 04:30:33;;;;;;;3.97;1.27;;;4.90;88.40;;;;;;5052274;28;20384;-40
2022/04/08 04:33:00;;;;;;;3.78;1.30;;;4.90;88.50;;;;;;5052144;28;20096;-41
2022/04/08 04:35:26;;;;;;;4.65;1.17;;;4.90;89.20;;;;;;5052248;28;20021;-40
2022/04/08 04:37:52;;;;;;;3.63;0.90;;;4.80;88.60;;;;;;5052266;28;20431;-41
2022/04/08 04:40:18;;;;;;;5.65;1.13;;;4.80;88.70;;;;;;5052172;28;20087;-40
2022/04/08 04:42:44;;;;;;;4.57;1.27;;;4.70;88.70;;;;;;5052121;28;20106;-41
2022/04/08 04:45:11;;;;;;;3.78;1.27;;;4.70;89.40;;;;;;5052411;28;20074;-41
2022/04/08 04:47:38;;;;;;;4.47;1.35;;;4.70;88.90;;;;;;5052314;28;20025;-41
2022/04/08 04:50:05;;;;;;;5.05;1.20;;;4.70;88.90;;;;;;5052391;28;20099;-40
2022/04/08 04:52:30;;;;;;;4.93;1.40;;;4.70;88.90;;;;;;5052407;28;20408;-40
2022/04/08 04:54:56;;;;;;;5.20;1.30;;;4.60;88.90;;;;;;5052099;28;20021;-40
2022/04/08 04:57:22;;;;;;;4.22;1.40;;;4.60;89.00;;;;;;5052084;28;20025;-40
2022/04/08 04:59:48;;;;;;;4.95;1.33;;;4.60;89.10;;;;;;5051806;28;20136;-39
2022/04/08 05:02:14;;;;;;;5.20;1.52;;;4.60;89.30;;;;;;5053296;28;20056;-40
2022/04/08 05:04:39;;;;;;;3.22;1.40;;;4.60;89.40;;;;;;5055909;28;20076;-39
2022/04/08 05:07:05;;;;;;;4.72;1.50;;;4.60;89.40;;;;;;5055785;28;20105;-40
2022/04/08 05:09:30;;;;;;;7.47;1.73;;;4.60;89.40;;;;;;5054352;28;20047;-40
2022/04/08 05:11:56;;;;;;;5.40;1.95;;;4.60;89.40;;;;;;5055488;28;20025;-40
2022/04/08 05:14:24;;;;;;;3.05;1.02;;;4.60;89.50;;;;;;5055534;28;20025;-40
2022/04/08 05:16:50;;;;;;;6.63;1.52;;;4.60;89.50;;;;;;5055432;28;20028;-38
2022/04/08 05:19:16;;;;;;;5.05;1.75;;;4.60;89.50;;;;;;5055510;28;20021;-41
2022/04/08 05:21:42;;;;;;;5.68;2.08;;;4.70;89.60;;;;;;5055660;28;20492;-40
2022/04/08 05:24:08;;;;;;;5.03;1.85;;;4.70;89.60;;;;;;5055589;28;20017;-40
2022/04/08 05:26:34;;;;;;;4.80;1.52;;;4.70;89.60;;;;;;5055254;28;20021;-39
2022/04/08 05:28:59;;;;;;;4.43;1.65;;;4.70;89.60;;;;;;5055253;28;20082;-40
2022/04/08 05:31:25;;;;;;;5.72;1.60;;;4.70;89.60;;;;;;5055290;28;20194;-40
2022/04/08 05:33:50;;;;;;;3.65;1.70;;;4.70;89.70;;;;;;5055123;28;20029;-40
2022/04/08 05:36:16;;;;;;;7.30;1.85;;;4.80;89.70;;;;;;5055129;28;20035;-40
2022/04/08 05:38:41;;;;;;;10.82;2.13;;;4.80;89.70;;;;;;5055062;28;20029;-40
2022/04/08 05:41:07;;;;;;;6.72;1.95;;;4.80;89.70;;;;;;5055005;28;20025;-40
2022/04/08 05:43:32;;;;;;;7.05;1.80;;;4.90;89.70;;;;;;5054925;28;20055;-41
2022/04/08 05:45:58;;;;;;;5.97;1.90;;;4.90;89.60;;;;;;5053524;28;20028;-40
2022/04/08 05:48:24;;;;;;;8.85;2.03;;;4.90;89.50;;;;;;5054924;28;20021;-42
2022/04/08 05:50:49;;;;;;;6.88;2.55;;;5.00;89.60;;;;;;5054801;28;20013;-40
2022/04/08 05:53:15;;;;;;;12.63;2.25;;;5.00;89.50;;;;;;5053460;28;20108;-41
2022/04/08 05:55:40;;;;;;;7.97;2.28;;;5.00;89.40;;;;;;5054840;28;20057;-41
2022/04/08 05:58:06;;;;;;;5.63;2.05;;;5.00;89.30;;;;;;5054898;28;20157;-40
2022/04/08 06:00:34;;;;;;;5.65;2.03;;;5.10;90.00;;;;;;5054521;28;20117;-40
2022/04/08 06:02:59;;;;;;;8.93;2.28;;;5.10;89.20;;;;;;5053284;28;20182;-41
2022/04/08 06:05:25;;;;;;;5.60;1.95;;;5.10;89.20;;;;;;5054616;28;20571;-40
2022/04/08 06:07:53;;;;;;;7.28;2.50;;;5.10;89.10;;;;;;5054307;28;20576;-41
2022/04/08 06:10:22;;;;;;;6.90;2.45;;;5.20;89.10;;;;;;5054702;28;20013;-40
2022/04/08 06:12:52;;;;;;;7.25;2.00;;;5.20;89.10;;;;;;5054279;28;20488;-40
2022/04/08 06:15:18;;;;;;;8.20;2.03;;;5.20;89.00;;;;;;5054534;28;20025;-40
2022/04/08 06:17:44;;;;;;;8.00;2.28;;;5.30;89.00;;;;;;5054596;28;20492;-40
2022/04/08 06:20:11;;;;;;;6.28;2.47;;;5.30;88.90;;;;;;5054284;28;20096;-40
2022/04/08 06:22:39;;;;;;;8.38;2.50;;;5.30;88.70;;;;;;5054315;28;20131;-40
2022/04/08 06:25:06;;;;;;;6.20;2.55;;;5.40;88.70;;;;;;5054209;28;20380;-40
2022/04/08 06:27:32;;;;;;;10.15;2.45;;;5.40;88.60;;;;;;5054070;28;20319;-40
2022/04/08 06:29:57;;;;;;;5.68;2.30;;;5.50;88.60;;;;;;5052818;28;20020;-41
2022/04/08 06:32:23;;;;;;;5.07;1.85;;;5.50;88.60;;;;;;5054073;28;20120;-40
2022/04/08 06:34:48;;;;;;;8.80;2.58;;;5.50;88.50;;;;;;5052776;28;20025;-41
2022/04/08 06:37:14;;;;;;;7.85;2.25;;;5.60;88.40;;;;;;5054053;28;20017;-39
2022/04/08 06:39:40;;;;;;;10.93;2.67;;;5.70;88.30;;;;;;5053943;28;20029;-40
2022/04/08 06:42:05;;;;;;;10.07;3.22;;;5.70;88.20;;;;;;5053800;28;20028;-42
2022/04/08 06:44:31;;;;;;;5.30;2.50;;;5.70;88.00;;;;;;5053832;28;20150;-39
2022/04/08 06:46:57;;;;;;;7.47;2.85;;;5.70;87.90;;;;;;5053942;28;20115;-41
2022/04/08 06:49:23;;;;;;;6.20;2.42;;;5.70;87.80;;;;;;5053710;28;20032;-41
2022/04/08 06:51:49;;;;;;;7.03;2.25;;;5.70;87.70;;;;;;5053675;28;20036;-41
2022/04/08 06:54:15;;;;;;;9.07;2.60;;;5.70;87.50;;;;;;5053695;28;20024;-41
2022/04/08 06:56:41;;;;;;;4.88;2.28;;;5.80;87.50;;;;;;5053653;28;20499;-41
2022/04/08 06:59:06;;;;;;;9.45;2.40;;;5.80;87.60;;;;;;5052262;28;20049;-41
2022/04/08 07:01:33;;;;;;;7.40;2.70;;;5.80;87.50;;;;;;5053390;28;20025;-40
2022/04/08 07:03:58;;;;;;;4.85;2.20;;;5.90;87.50;;;;;;5052221;28;20029;-41
2022/04/08 07:06:24;;;;;;;4.80;2.45;;;5.90;87.40;;;;;;5053420;28;20035;-41
2022/04/08 07:08:50;;;;;;;4.72;1.98;;;5.90;87.30;;;;;;5053406;28;20100;-41
2022/04/08 07:11:15;;;;;;;4.70;2.28;;;6.00;87.40;;;;;;5053421;28;20028;-41
2022/04/08 07:13:41;;;;;;;6.90;2.83;;;6.10;87.40;;;;;;5053566;28;20021;-40
2022/04/08 07:16:08;;;;;;;5.63;2.35;;;6.10;87.30;;;;;;5053255;28;20389;-45
2022/04/08 07:18:33;;;;;;;6.32;2.30;;;6.20;87.20;;;;;;5051923;28;20024;-40
2022/04/08 07:20:59;;;;;;;4.95;2.50;;;6.30;87.20;;;;;;5053165;28;20021;-41
2022/04/08 07:23:25;;;;;;;6.22;2.20;;;6.30;87.10;;;;;;5053450;28;20021;-40
2022/04/08 07:25:50;;;;;;;5.95;2.78;;;6.40;86.90;;;;;;5052593;28;20419;-42
2022/04/08 07:28:16;;;;;;;6.47;2.15;;;6.50;86.50;;;;;;5053032;28;20021;-42
2022/04/08 07:30:42;;;;;;;6.65;2.25;;;6.50;86.30;;;;;;5053003;28;20049;-42
2022/04/08 07:33:08;;;;;;;4.90;2.00;;;6.60;86.20;;;;;;5053027;28;20497;-42
2022/04/08 07:35:33;;;;;;;4.32;2.08;;;6.60;86.20;;;;;;5052986;28;20029;-41
2022/04/08 07:38:00;;;;;;;4.57;1.90;;;6.70;86.30;;;;;;5053054;28;20104;-41
2022/04/08 07:40:26;;;;;;;4.82;2.03;;;6.80;86.20;;;;;;5053091;28;20025;-43
2022/04/08 07:42:52;;;;;;;3.63;2.05;;;6.80;85.90;;;;;;5053000;28;20021;-41
2022/04/08 07:45:18;;;;;;;7.68;2.58;;;6.80;85.50;;;;;;5053076;28;20025;-42
2022/04/08 07:47:44;;;;;;;8.25;2.28;;;6.90;85.50;;;;;;5052883;28;20437;-43
2022/04/08 07:50:12;;;;;;;5.72;2.42;;;7.00;85.20;;;;;;5051901;28;20029;-41
2022/04/08 07:52:39;;;;;;;6.60;2.42;;;7.00;85.20;;;;;;5053133;28;20480;-41
2022/04/08 07:55:06;;;;;;;7.07;2.10;;;7.10;85.00;;;;;;5052748;28;20420;-42
2022/04/08 07:57:31;;;;;;;6.38;2.55;;;7.10;84.80;;;;;;5052797;28;20075;-39
2022/04/08 07:59:58;;;;;;;4.82;2.08;;;7.20;84.80;;;;;;5052571;28;20409;-38
2022/04/08 08:02:26;;;;;;;6.53;2.30;;;7.20;84.40;;;;;;5052767;28;20385;-41
2022/04/08 08:04:51;;;;;;;4.55;1.90;;;7.30;84.20;;;;;;5051308;28;20054;-40
2022/04/08 08:07:17;;;;;;;7.03;2.30;;;7.30;83.80;;;;;;5052614;28;20028;-41
2022/04/08 08:09:43;;;;;;;5.97;2.40;;;7.30;83.70;;;;;;5052607;28;20389;-40
2022/04/08 08:12:09;;;;;;;7.00;2.25;;;7.40;83.30;;;;;;5052547;28;20071;-40
2022/04/08 08:14:35;;;;;;;3.47;2.10;;;7.40;82.90;;;;;;5052430;28;20025;-41
2022/04/08 08:17:01;;;;;;;8.20;2.30;;;7.50;82.60;;;;;;5052482;28;20063;-41
2022/04/08 08:19:28;;;;;;;5.75;2.40;;;7.50;82.00;;;;;;5052540;28;20025;-40
2022/04/08 08:21:53;;;;;;;3.05;1.60;;;7.50;81.80;;;;;;5052758;28;20033;-41
2022/04/08 08:24:19;;;;;;;3.40;1.90;;;7.60;81.70;;;;;;5052465;28;20075;-41
2022/04/08 08:26:44;;;;;;;11.10;2.75;;;7.60;81.90;;;;;;5052377;28;20021;-41
2022/04/08 08:29:10;;;;;;;5.53;2.15;;;7.70;81.60;;;;;;5052490;28;20021;-41
2022/04/08 08:31:36;;;;;;;5.68;1.70;;;7.80;81.30;;;;;;5052406;28;20025;-40
2022/04/08 08:34:03;;;;;;;5.82;1.85;;;7.80;80.90;;;;;;5052244;28;20017;-40
2022/04/08 08:36:30;;;;;;;4.85;1.90;;;7.80;80.40;;;;;;5054195;28;20382;-40
2022/04/08 08:38:55;;;;;;;7.15;1.90;;;7.90;80.30;;;;;;5056461;28;20497;-40
2022/04/08 08:41:23;;;;;;;4.68;1.88;;;7.90;80.10;;;;;;5056327;28;20103;-41
2022/04/08 08:43:50;;;;;;;2.72;1.60;;;8.00;80.30;;;;;;5056459;28;20017;-41
2022/04/08 08:46:18;;;;;;;7.55;1.70;;;8.10;79.90;;;;;;5056246;28;20017;-41
2022/04/08 08:48:45;;;;;;;5.95;1.98;;;8.10;79.40;;;;;;5056059;28;20357;-40
2022/04/08 08:51:13;;;;;;;8.07;1.70;;;8.10;78.80;;;;;;5056010;28;20027;-41
2022/04/08 08:53:38;;;;;;;5.57;1.80;;;8.10;78.70;;;;;;5054656;28;20078;-40
2022/04/08 08:56:06;;;;;;;8.88;2.08;;;8.10;78.80;;;;;;5056008;28;20017;-45
2022/04/08 08:58:34;;;;;;;6.07;1.80;;;8.10;79.00;;;;;;5056045;28;20045;-40
2022/04/08 09:01:00;;;;;;;3.08;1.45;;;8.20;78.80;;;;;;5055899;28;20017;-40
2022/04/08 09:03:29;;;;;;;3.28;1.67;;;8.30;79.10;;;;;;5055721;28;20434;-40
2022/04/08 09:06:04;;;;;;;6.13;1.80;;;8.30;79.00;;;;;;5055733;28;20087;-41
2022/04/08 09:08:34;;;;;;;7.32;2.05;;;8.30;79.20;;;;;;5055643;28;20040;-40
2022/04/08 09:11:01;;;;;;;6.05;1.83;;;8.40;79.10;;;;;;5055892;28;20048;-41
2022/04/08 09:13:28;;;;;;;4.30;2.03;;;8.40;78.90;;;;;;5055723;28;20029;-41
2022/04/08 09:15:59;;;;;;;6.70;1.90;;;8.40;78.60;;;;;;5054197;28;20039;-41
2022/04/08 09:18:31;;;;;;;5.40;2.33;;;8.40;77.80;;;;;;5055540;28;20449;-41
2022/04/08 09:21:00;;;;;;;5.68;1.80;;;8.40;78.10;;;;;;5054013;28;20048;-40
2022/04/08 09:23:28;;;;;;;4.32;1.88;;;8.50;78.10;;;;;;5055415;28;20508;-41
2022/04/08 09:26:02;;;;;;;6.78;1.67;;;8.60;78.10;;;;;;5055576;28;20431;-40
2022/04/08 09:28:38;;;;;;;5.28;1.83;;;8.70;78.20;;;;;;5055474;28;20541;-40
2022/04/08 09:31:04;;;;;;;7.85;2.30;;;8.90;78.30;;;;;;5055255;28;20087;-40
2022/04/08 09:33:31;;;;;;;4.80;2.10;;;8.90;77.30;;;;;;5055401;28;20475;-41
2022/04/08 09:35:58;;;;;;;5.88;1.98;;;9.00;77.40;;;;;;5055445;28;20059;-40
2022/04/08 09:38:26;;;;;;;5.72;2.00;;;9.10;77.10;;;;;;5055260;28;20539;-41
2022/04/08 09:41:03;;;;;;;5.65;2.17;;;9.10;76.70;;;;;;5053801;28;20151;-41
2022/04/08 09:43:33;;;;;;;6.55;2.00;;;9.20;77.00;;;;;;5055384;28;20042;-41
2022/04/08 09:46:16;;;;;;;8.55;1.88;;;9.20;77.70;;;;;;5053830;28;20024;-41
2022/04/08 09:48:42;;;;;;;6.63;1.88;;;9.40;77.10;;;;;;5054205;28;20028;-40
2022/04/08 09:51:11;;;;;;;4.68;1.90;;;9.40;76.20;;;;;;5053508;28;20036;-40
2022/04/08 09:53:38;;;;;;;4.85;1.60;;;9.50;76.10;;;;;;5054795;28;20021;-40
2022/04/08 09:56:11;;;;;;;4.82;1.90;;;9.50;76.20;;;;;;5054766;28;20013;-41
2022/04/08 09:58:37;;;;;;;5.70;2.05;;;9.50;75.40;;;;;;5020511;28;20469;-40
2022/04/08 10:01:03;;;;;;;2.38;1.60;;;9.50;75.30;;;;;;5054730;28;20029;-41
2022/04/08 10:03:30;;;;;;;5.88;1.90;;;9.50;75.20;;;;;;5054671;28;20195;-40
2022/04/08 10:05:56;;;;;;;7.88;1.83;;;9.50;75.20;;;;;;5054602;28;20032;-46
2022/04/08 10:08:22;;;;;;;6.75;2.00;;;9.50;74.40;;;;;;5054656;28;20024;-41
2022/04/08 10:10:56;;;;;;;3.92;1.63;;;9.50;74.50;;;;;;5054610;28;20017;-40
2022/04/08 10:13:26;;;;;;;;;;;9.50;74.40;;;;;;5054611;28;20021;-40
2022/04/08 10:16:10;;;;;;;6.60;2.47;;;9.50;74.30;;;;;;5054220;28;19905;-41
2022/04/08 10:18:42;;;;;;;5.70;1.90;;;9.50;74.50;;;;;;5052929;28;20036;-42
2022/04/08 10:21:10;;;;;;;6.78;2.30;;;9.60;74.50;;;;;;5054378;28;20021;-41
2022/04/08 10:23:38;;;;;;;3.42;2.00;;;9.60;73.90;;;;;;5054188;28;20025;-40
2022/04/08 10:26:05;;;;;;;6.82;1.85;;;9.60;74.30;;;;;;5054163;28;20021;-40
2022/04/08 10:28:37;;;;;;;5.68;1.88;;;9.60;74.40;;;;;;5054349;28;20120;-41
2022/04/08 10:31:23;;;;;;;7.25;1.92;;;9.70;74.40;;;;;;5054320;28;20119;-40
2022/04/08 10:33:53;;;;;;;4.70;1.67;;;9.80;74.50;;;;;;5054110;28;20089;-42
2022/04/08 10:36:29;;;;;;;3.42;2.00;;;9.80;74.60;;;;;;5053923;28;20025;-41
2022/04/08 10:39:18;;;;;;;6.78;2.03;;;9.90;74.60;;;;;;5053761;28;20075;-40
2022/04/08 10:42:06;;;;;;;9.45;2.47;;;9.90;74.30;;;;;;5053619;28;20408;-40
2022/04/08 10:44:37;;;;;;;4.22;1.85;;;10.00;74.40;;;;;;5053913;28;20453;-40
2022/04/08 10:47:16;;;;;;;4.95;1.77;;;10.00;74.20;;;;;;5053628;28;20040;-41
2022/04/08 10:50:00;;;;;;;9.18;2.30;;;10.10;74.30;;;;;;5053980;28;20086;-41
2022/04/08 10:52:28;;;;;;;5.63;2.25;;;10.10;74.00;;;;;;5053778;28;20116;-41
2022/04/08 10:55:12;;;;;;;6.60;2.13;;;10.10;73.60;;;;;;5052205;28;20025;-40
2022/04/08 10:57:39;;;;;;;6.43;2.03;;;10.10;73.30;;;;;;5053477;28;20021;-41
2022/04/08 11:00:07;;;;;;;4.70;2.58;;;10.10;72.60;;;;;;5052422;28;20079;-40
2022/04/08 11:02:37;;;;;;;9.40;2.38;;;10.20;72.80;;;;;;5053409;28;20389;-42
2022/04/08 11:05:08;;;;;;;5.30;2.40;;;10.20;72.90;;;;;;5053246;28;20527;-40
2022/04/08 11:07:34;;;;;;;6.97;2.38;;;10.30;73.00;;;;;;5053060;28;20032;-40
2022/04/08 11:10:00;;;;;;;9.13;2.80;;;10.30;73.10;;;;;;5053153;28;20100;-40
2022/04/08 11:12:28;;;;;;;6.13;2.25;;;10.30;72.50;;;;;;5053033;28;20066;-30
2022/04/08 11:14:58;;;;;;;5.72;2.40;;;10.30;72.80;;;;;;5053133;28;20023;-36
2022/04/08 11:17:36;;;;;;;5.85;2.42;;;10.30;72.90;;;;;;5052975;28;20060;-31
2022/04/08 11:20:05;;;;;;;4.88;2.10;;;10.40;72.70;;;;;;5052910;28;20481;-32
2022/04/08 11:22:41;;;;;;;4.85;2.60;;;10.40;72.60;;;;;;5053028;28;20476;-30
2022/04/08 11:25:18;;;;;;;3.85;2.15;;;10.40;72.40;;;;;;5052840;28;20017;-31
2022/04/08 11:27:43;;;;;;;5.40;2.50;;;10.40;72.50;;;;;;5052696;28;20029;-31
2022/04/08 11:30:09;;;;;;;3.90;2.17;;;10.30;72.00;;;;;;5052760;28;20381;-30
2022/04/08 11:32:39;;;;;;;6.07;2.40;;;10.40;72.20;;;;;;5052752;28;20028;-32
2022/04/08 11:35:14;;;;;;;6.70;3.00;;;10.30;71.90;;;;;;5051452;28;20025;-32
2022/04/08 11:37:40;;;;;;;5.85;2.80;;;10.30;71.90;;;;;;5052806;28;20427;-32
2022/04/08 11:40:07;;;;;;;4.25;2.38;;;10.40;72.70;;;;;;5052691;28;20032;-33
2022/04/08 11:42:33;;;;;;;6.85;2.60;;;10.40;72.10;;;;;;5052663;28;20043;-31
2022/04/08 11:45:00;;;;;;;5.68;2.60;;;10.40;72.10;;;;;;5052368;28;20021;-32
2022/04/08 11:47:32;;;;;;;4.00;2.33;;;10.60;72.00;;;;;;5052148;28;20025;-33
2022/04/08 11:50:02;;;;;;;6.90;2.53;;;10.60;71.70;;;;;;5051236;28;20032;-33
2022/04/08 11:52:27;;;;;;;6.00;2.33;;;10.60;71.50;;;;;;5051240;28;20021;-32
2022/04/08 11:54:56;;;;;;;8.27;2.95;;;10.60;71.50;;;;;;5052546;28;20363;-31
2022/04/08 11:57:32;;;;;;;8.20;2.50;;;10.60;71.70;;;;;;5052959;28;20439;-33
2022/04/08 11:59:59;;;;;;;9.93;3.20;;;10.60;71.70;;;;;;5052450;28;20080;-31
2022/04/08 12:02:25;;;;;;;6.13;2.50;;;10.60;71.30;;;;;;5052849;28;20040;-32
2022/04/08 12:04:51;;;;;;;8.13;2.38;;;10.70;71.70;;;;;;5052473;28;20029;-31
2022/04/08 12:07:25;;;;;;;7.25;2.70;;;10.70;71.20;;;;;;5052399;28;20029;-32
2022/04/08 12:09:55;;;;;;;6.30;2.65;;;10.80;70.90;;;;;;5052703;28;20104;-35
2022/04/08 12:12:28;;;;;;;7.20;2.40;;;10.80;70.50;;;;;;5058259;28;20466;-38
2022/04/08 12:14:54;;;;;;;8.27;2.70;;;10.90;70.10;;;;;;5059268;28;20048;-37
2022/04/08 12:17:20;;;;;;;4.70;2.38;;;10.90;69.60;;;;;;5059248;28;20047;-34
2022/04/08 12:19:51;;;;;;;5.00;2.22;;;10.80;69.70;;;;;;5059522;28;20112;-32
2022/04/08 12:22:17;;;;;;;5.57;2.25;;;10.70;69.40;;;;;;5059429;28;20500;-33
2022/04/08 12:24:44;;;;;;;5.82;2.20;;;10.60;69.40;;;;;;5059315;28;20025;-31
2022/04/08 12:27:16;;;;;;;7.35;2.45;;;10.50;69.10;;;;;;5059015;28;20067;-32
2022/04/08 12:29:41;;;;;;;5.57;2.28;;;10.50;69.40;;;;;;5059316;28;20067;-31
2022/04/08 12:32:14;;;;;;;6.53;2.15;;;10.40;69.30;;;;;;5058990;28;20029;-32
2022/04/08 12:34:41;;;;;;;7.72;2.53;;;10.40;69.80;;;;;;5059160;28;20385;-32
2022/04/08 12:37:06;;;;;;;5.22;2.40;;;10.50;70.00;;;;;;5059030;28;20064;-32
2022/04/08 12:39:32;;;;;;;5.05;2.13;;;10.60;70.10;;;;;;5059324;28;20442;-32
2022/04/08 12:41:59;;;;;;;4.90;2.22;;;10.60;70.20;;;;;;5059019;28;20021;-34
2022/04/08 12:44:25;;;;;;;6.40;2.47;;;10.70;70.40;;;;;;5059343;28;20024;-34
2022/04/08 12:46:51;;;;;;;7.90;2.78;;;10.70;70.40;;;;;;5058923;28;20030;-34
2022/04/08 12:49:17;;;;;;;6.45;2.67;;;10.70;70.20;;;;;;5059222;28;20025;-35
2022/04/08 12:51:42;;;;;;;6.30;2.83;;;10.70;69.70;;;;;;5058894;28;20534;-34
2022/04/08 12:54:08;;;;;;;9.35;3.33;;;10.60;69.20;;;;;;5059019;28;20078;-33